sensor_id;sensor_type;location;lat;lon;timestamp;pressure;altitude;pressure_sealevel;temperature;humidity
69737;BME280;64476;55.004;73.342;2023-07-09T00:00:50;100389.66;;;15.90;61.57
69737;BME280;64476;55.004;73.342;2023-07-09T00:03:52;100384.75;;;15.87;61.76
69737;BME280;64476;55.004;73.342;2023-07-09T00:06:56;100381.06;;;15.88;61.57
69737;BME280;64476;55.004;73.342;2023-07-09T00:13:07;100397.22;;;15.93;61.14
69737;BME280;64476;55.004;73.342;2023-07-09T00:16:18;100401.69;;;15.99;60.75
69737;BME280;64476;55.004;73.342;2023-07-09T00:19:21;100408.84;;;16.05;60.65
69737;BME280;64476;55.004;73.342;2023-07-09T00:22:29;100412.13;;;16.07;60.60
69737;BME280;64476;55.004;73.342;2023-07-09T00:25:31;100380.69;;;15.91;60.50
69737;BME280;64476;55.004;73.342;2023-07-09T00:28:37;100402.75;;;16.05;60.58
69737;BME280;64476;55.004;73.342;2023-07-09T00:31:39;100398.03;;;16.07;60.74
69737;BME280;64476;55.004;73.342;2023-07-09T00:34:45;100409.47;;;16.07;60.35
69737;BME280;64476;55.004;73.342;2023-07-09T00:37:50;100368.63;;;15.82;60.32
69737;BME280;64476;55.004;73.342;2023-07-09T00:41:05;100409.28;;;16.09;60.27
69737;BME280;64476;55.004;73.342;2023-07-09T00:50:49;100414.78;;;16.14;60.27
69737;BME280;64476;55.004;73.342;2023-07-09T00:53:55;100412.97;;;16.14;60.36
69737;BME280;64476;55.004;73.342;2023-07-09T00:57:14;100402.56;;;16.13;60.21
69737;BME280;64476;55.004;73.342;2023-07-09T01:00:19;100416.66;;;16.26;60.27
69737;BME280;64476;55.004;73.342;2023-07-09T01:03:37;100427.09;;;16.41;59.89
69737;BME280;64476;55.004;73.342;2023-07-09T01:07:16;100411.81;;;16.50;59.84
69737;BME280;64476;55.004;73.342;2023-07-09T01:13:56;100354.66;;;16.27;59.42
69737;BME280;64476;55.004;73.342;2023-07-09T01:17:04;100427.16;;;16.74;59.45
69737;BME280;64476;55.004;73.342;2023-07-09T01:20:17;100415.31;;;16.64;59.19
69737;BME280;64476;55.004;73.342;2023-07-09T01:23:22;100431.00;;;16.72;59.19
69737;BME280;64476;55.004;73.342;2023-07-09T01:26:26;100412.03;;;16.62;59.09
69737;BME280;64476;55.004;73.342;2023-07-09T01:29:33;100438.78;;;16.80;58.74
69737;BME280;64476;55.004;73.342;2023-07-09T01:32:37;100435.72;;;16.83;58.90
69737;BME280;64476;55.004;73.342;2023-07-09T01:35:39;100442.66;;;16.97;58.61
69737;BME280;64476;55.004;73.342;2023-07-09T01:38:50;100441.84;;;17.10;58.25
69737;BME280;64476;55.004;73.342;2023-07-09T01:41:51;100426.91;;;17.16;57.43
69737;BME280;64476;55.004;73.342;2023-07-09T01:44:54;100438.56;;;17.35;56.89
69737;BME280;64476;55.004;73.342;2023-07-09T01:47:59;100447.09;;;17.50;56.39
69737;BME280;64476;55.004;73.342;2023-07-09T01:51:00;100436.91;;;17.47;55.21
69737;BME280;64476;55.004;73.342;2023-07-09T01:54:04;100437.66;;;17.61;54.60
69737;BME280;64476;55.004;73.342;2023-07-09T02:00:16;100454.34;;;17.88;53.53
69737;BME280;64476;55.004;73.342;2023-07-09T02:03:19;100448.56;;;17.98;51.47
69737;BME280;64476;55.004;73.342;2023-07-09T02:06:22;100449.97;;;18.07;50.07
69737;BME280;64476;55.004;73.342;2023-07-09T02:09:26;100440.75;;;18.09;48.17
69737;BME280;64476;55.004;73.342;2023-07-09T02:12:27;100442.97;;;18.19;47.47
69737;BME280;64476;55.004;73.342;2023-07-09T02:15:29;100408.00;;;18.09;46.99
69737;BME280;64476;55.004;73.342;2023-07-09T02:18:31;100449.59;;;18.41;46.28
69737;BME280;64476;55.004;73.342;2023-07-09T02:21:35;100437.28;;;18.47;46.05
69737;BME280;64476;55.004;73.342;2023-07-09T02:24:38;100434.34;;;18.55;45.55
69737;BME280;64476;55.004;73.342;2023-07-09T02:27:47;100439.78;;;18.67;45.90
69737;BME280;64476;55.004;73.342;2023-07-09T02:30:50;100427.69;;;18.71;45.90
69737;BME280;64476;55.004;73.342;2023-07-09T02:33:58;100443.31;;;18.93;45.79
69737;BME280;64476;55.004;73.342;2023-07-09T02:37:00;100413.41;;;18.90;44.83
69737;BME280;64476;55.004;73.342;2023-07-09T02:40:02;100439.00;;;19.17;44.70
69737;BME280;64476;55.004;73.342;2023-07-09T02:43:06;100434.06;;;19.20;44.66
69737;BME280;64476;55.004;73.342;2023-07-09T02:46:08;100449.69;;;19.35;44.00
69737;BME280;64476;55.004;73.342;2023-07-09T02:49:41;100431.03;;;19.35;43.63
69737;BME280;64476;55.004;73.342;2023-07-09T02:52:50;100399.34;;;19.27;43.26
69737;BME280;64476;55.004;73.342;2023-07-09T02:55:52;100454.03;;;19.66;43.58
69737;BME280;64476;55.004;73.342;2023-07-09T02:58:54;100454.22;;;19.71;43.21
69737;BME280;64476;55.004;73.342;2023-07-09T03:01:56;100442.38;;;19.67;42.21
69737;BME280;64476;55.004;73.342;2023-07-09T03:04:58;100438.22;;;19.71;41.92
69737;BME280;64476;55.004;73.342;2023-07-09T03:08:00;100430.31;;;19.83;42.08
69737;BME280;64476;55.004;73.342;2023-07-09T03:14:36;100413.91;;;19.98;42.14
69737;BME280;64476;55.004;73.342;2023-07-09T03:17:47;100432.78;;;20.26;41.26
69737;BME280;64476;55.004;73.342;2023-07-09T03:20:52;100428.69;;;20.42;41.15
69737;BME280;64476;55.004;73.342;2023-07-09T03:23:54;100415.81;;;20.51;40.83
69737;BME280;64476;55.004;73.342;2023-07-09T03:26:56;100408.28;;;20.48;39.46
69737;BME280;64476;55.004;73.342;2023-07-09T03:29:58;100428.16;;;20.64;40.57
69737;BME280;64476;55.004;73.342;2023-07-09T03:33:01;100423.19;;;20.67;40.20
69737;BME280;64476;55.004;73.342;2023-07-09T03:36:06;100415.38;;;20.66;38.96
69737;BME280;64476;55.004;73.342;2023-07-09T03:39:08;100440.00;;;20.68;38.61
69737;BME280;64476;55.004;73.342;2023-07-09T03:42:10;100412.44;;;20.44;39.06
69737;BME280;64476;55.004;73.342;2023-07-09T03:45:11;100426.84;;;20.54;39.35
69737;BME280;64476;55.004;73.342;2023-07-09T03:48:14;100431.31;;;20.72;39.07
69737;BME280;64476;55.004;73.342;2023-07-09T03:51:17;100434.13;;;20.89;38.82
69737;BME280;64476;55.004;73.342;2023-07-09T03:54:19;100432.00;;;21.03;38.41
69737;BME280;64476;55.004;73.342;2023-07-09T03:57:22;100435.75;;;21.14;38.59
69737;BME280;64476;55.004;73.342;2023-07-09T04:00:24;100436.34;;;21.27;38.59
69737;BME280;64476;55.004;73.342;2023-07-09T04:03:29;100415.19;;;21.38;36.87
69737;BME280;64476;55.004;73.342;2023-07-09T04:06:31;100431.38;;;21.71;36.22
69737;BME280;64476;55.004;73.342;2023-07-09T04:09:32;100429.28;;;21.85;35.75
69737;BME280;64476;55.004;73.342;2023-07-09T04:16:10;100432.38;;;22.22;35.39
69737;BME280;64476;55.004;73.342;2023-07-09T04:19:16;100389.44;;;22.17;34.94
69737;BME280;64476;55.004;73.342;2023-07-09T04:22:18;100428.47;;;22.59;35.09
69737;BME280;64476;55.004;73.342;2023-07-09T04:25:22;100406.94;;;22.54;35.49
69737;BME280;64476;55.004;73.342;2023-07-09T04:28:23;100416.53;;;22.49;34.46
69737;BME280;64476;55.004;73.342;2023-07-09T04:31:25;100418.50;;;22.42;34.80
69737;BME280;64476;55.004;73.342;2023-07-09T04:34:27;100428.63;;;22.23;34.96
69737;BME280;64476;55.004;73.342;2023-07-09T04:37:29;100411.56;;;21.96;35.50
69737;BME280;64476;55.004;73.342;2023-07-09T04:40:30;100441.28;;;21.99;35.63
69737;BME280;64476;55.004;73.342;2023-07-09T04:43:34;100417.66;;;21.80;35.54
69737;BME280;64476;55.004;73.342;2023-07-09T04:46:43;100429.25;;;22.14;35.39
69737;BME280;64476;55.004;73.342;2023-07-09T04:49:44;100428.53;;;22.47;35.47
69737;BME280;64476;55.004;73.342;2023-07-09T04:52:50;100414.34;;;22.63;35.66
69737;BME280;64476;55.004;73.342;2023-07-09T04:55:56;100417.03;;;22.63;34.59
69737;BME280;64476;55.004;73.342;2023-07-09T04:58:57;100427.72;;;22.80;35.03
69737;BME280;64476;55.004;73.342;2023-07-09T05:01:59;100406.06;;;22.82;34.98
69737;BME280;64476;55.004;73.342;2023-07-09T05:05:01;100420.06;;;23.06;33.75
69737;BME280;64476;55.004;73.342;2023-07-09T05:08:05;100426.41;;;23.16;33.37
69737;BME280;64476;55.004;73.342;2023-07-09T05:11:10;100415.03;;;23.26;32.51
69737;BME280;64476;55.004;73.342;2023-07-09T05:14:12;100417.09;;;23.41;33.25
69737;BME280;64476;55.004;73.342;2023-07-09T05:17:13;100412.97;;;23.55;32.84
69737;BME280;64476;55.004;73.342;2023-07-09T05:20:15;100407.78;;;23.49;33.15
69737;BME280;64476;55.004;73.342;2023-07-09T05:23:17;100426.94;;;23.57;32.59
69737;BME280;64476;55.004;73.342;2023-07-09T05:26:19;100403.06;;;23.34;33.21
69737;BME280;64476;55.004;73.342;2023-07-09T05:29:20;100418.97;;;23.40;34.34
69737;BME280;64476;55.004;73.342;2023-07-09T05:32:54;100419.50;;;23.42;32.81
69737;BME280;64476;55.004;73.342;2023-07-09T05:35:58;100408.41;;;23.34;32.95
69737;BME280;64476;55.004;73.342;2023-07-09T05:39:00;100406.00;;;23.32;32.49
69737;BME280;64476;55.004;73.342;2023-07-09T05:42:02;100406.69;;;23.44;33.31
69737;BME280;64476;55.004;73.342;2023-07-09T05:45:38;100401.06;;;23.46;33.21
69737;BME280;64476;55.004;73.342;2023-07-09T05:48:49;100399.06;;;23.58;32.14
69737;BME280;64476;55.004;73.342;2023-07-09T05:51:50;100397.72;;;23.78;32.16
69737;BME280;64476;55.004;73.342;2023-07-09T05:54:53;100371.38;;;23.53;31.67
69737;BME280;64476;55.004;73.342;2023-07-09T05:57:54;100386.78;;;23.62;31.84
69737;BME280;64476;55.004;73.342;2023-07-09T06:00:56;100385.38;;;23.77;31.77
69737;BME280;64476;55.004;73.342;2023-07-09T06:03:58;100370.13;;;23.82;31.31
69737;BME280;64476;55.004;73.342;2023-07-09T06:07:00;100369.88;;;23.84;31.69
69737;BME280;64476;55.004;73.342;2023-07-09T06:10:07;100367.19;;;23.84;30.84
69737;BME280;64476;55.004;73.342;2023-07-09T06:13:10;100376.59;;;23.86;31.15
69737;BME280;64476;55.004;73.342;2023-07-09T06:16:12;100375.44;;;24.04;31.08
69737;BME280;64476;55.004;73.342;2023-07-09T06:19:14;100373.94;;;24.18;31.20
69737;BME280;64476;55.004;73.342;2023-07-09T06:22:16;100370.00;;;24.26;31.06
69737;BME280;64476;55.004;73.342;2023-07-09T06:25:17;100376.72;;;24.29;30.75
69737;BME280;64476;55.004;73.342;2023-07-09T06:28:22;100376.38;;;24.47;30.85
69737;BME280;64476;55.004;73.342;2023-07-09T06:31:24;100374.31;;;24.64;31.04
69737;BME280;64476;55.004;73.342;2023-07-09T06:34:26;100370.69;;;24.86;29.92
69737;BME280;64476;55.004;73.342;2023-07-09T06:37:28;100357.94;;;25.08;29.51
69737;BME280;64476;55.004;73.342;2023-07-09T06:40:30;100358.00;;;25.19;29.30
69737;BME280;64476;55.004;73.342;2023-07-09T06:43:34;100359.94;;;25.28;28.88
69737;BME280;64476;55.004;73.342;2023-07-09T06:46:40;100364.47;;;25.23;29.67
69737;BME280;64476;55.004;73.342;2023-07-09T06:49:41;100368.22;;;25.17;30.53
69737;BME280;64476;55.004;73.342;2023-07-09T06:52:47;100364.47;;;25.23;29.65
69737;BME280;64476;55.004;73.342;2023-07-09T06:55:49;100349.09;;;25.08;29.60
69737;BME280;64476;55.004;73.342;2023-07-09T07:01:57;100322.03;;;24.77;30.77
69737;BME280;64476;55.004;73.342;2023-07-09T07:04:59;100344.16;;;24.95;30.49
69737;BME280;64476;55.004;73.342;2023-07-09T07:08:02;100359.31;;;25.06;30.24
69737;BME280;64476;55.004;73.342;2023-07-09T07:11:04;100353.38;;;25.04;29.99
69737;BME280;64476;55.004;73.342;2023-07-09T07:14:07;100348.78;;;25.04;29.99
69737;BME280;64476;55.004;73.342;2023-07-09T07:17:11;100346.63;;;25.01;30.41
69737;BME280;64476;55.004;73.342;2023-07-09T07:20:34;100347.53;;;25.22;29.59
69737;BME280;64476;55.004;73.342;2023-07-09T07:23:46;100325.50;;;25.20;29.96
69737;BME280;64476;55.004;73.342;2023-07-09T07:26:50;100308.25;;;25.11;30.30
69737;BME280;64476;55.004;73.342;2023-07-09T07:29:52;100332.22;;;25.23;30.51
69737;BME280;64476;55.004;73.342;2023-07-09T07:32:55;100334.66;;;25.24;30.58
69737;BME280;64476;55.004;73.342;2023-07-09T07:35:57;100332.78;;;25.30;30.45
69737;BME280;64476;55.004;73.342;2023-07-09T07:39:00;100325.81;;;25.39;29.71
69737;BME280;64476;55.004;73.342;2023-07-09T07:42:04;100334.38;;;25.31;29.78
69737;BME280;64476;55.004;73.342;2023-07-09T07:45:06;100332.72;;;25.15;30.30
69737;BME280;64476;55.004;73.342;2023-07-09T07:51:46;100324.59;;;24.99;30.61
69737;BME280;64476;55.004;73.342;2023-07-09T07:54:49;100313.25;;;24.97;30.37
69737;BME280;64476;55.004;73.342;2023-07-09T07:57:50;100324.59;;;25.04;30.92
69737;BME280;64476;55.004;73.342;2023-07-09T08:04:33;100336.25;;;25.20;30.38
69737;BME280;64476;55.004;73.342;2023-07-09T08:07:34;100321.91;;;25.04;29.92
69737;BME280;64476;55.004;73.342;2023-07-09T08:10:36;100339.19;;;25.19;29.82
69737;BME280;64476;55.004;73.342;2023-07-09T08:13:38;100334.81;;;25.02;30.12
69737;BME280;64476;55.004;73.342;2023-07-09T08:16:40;100335.41;;;25.09;30.88
69737;BME280;64476;55.004;73.342;2023-07-09T08:19:47;100348.38;;;25.28;30.99
69737;BME280;64476;55.004;73.342;2023-07-09T08:22:49;100309.34;;;25.15;29.81
69737;BME280;64476;55.004;73.342;2023-07-09T08:25:54;100321.41;;;25.12;29.77
69737;BME280;64476;55.004;73.342;2023-07-09T08:28:57;100347.00;;;25.20;30.07
69737;BME280;64476;55.004;73.342;2023-07-09T08:31:58;100346.16;;;25.20;31.16
69737;BME280;64476;55.004;73.342;2023-07-09T08:35:00;100338.94;;;25.25;30.74
69737;BME280;64476;55.004;73.342;2023-07-09T08:38:02;100338.38;;;25.18;30.40
69737;BME280;64476;55.004;73.342;2023-07-09T08:41:07;100337.56;;;25.18;30.34
69737;BME280;64476;55.004;73.342;2023-07-09T08:48:04;100312.72;;;24.95;30.07
69737;BME280;64476;55.004;73.342;2023-07-09T08:51:41;100318.34;;;24.88;30.27
69737;BME280;64476;55.004;73.342;2023-07-09T08:54:45;100323.00;;;24.98;30.39
69737;BME280;64476;55.004;73.342;2023-07-09T09:01:05;100306.53;;;24.95;30.85
69737;BME280;64476;55.004;73.342;2023-07-09T09:04:20;100306.59;;;25.00;30.34
69737;BME280;64476;55.004;73.342;2023-07-09T09:07:27;100313.34;;;25.07;30.60
69737;BME280;64476;55.004;73.342;2023-07-09T09:10:39;100305.53;;;25.06;30.67
69737;BME280;64476;55.004;73.342;2023-07-09T09:13:44;100284.75;;;24.91;31.56
69737;BME280;64476;55.004;73.342;2023-07-09T09:16:47;100312.81;;;25.05;31.74
69737;BME280;64476;55.004;73.342;2023-07-09T09:19:56;100309.03;;;25.06;30.79
69737;BME280;64476;55.004;73.342;2023-07-09T09:23:13;100309.28;;;25.05;30.47
69737;BME280;64476;55.004;73.342;2023-07-09T09:26:47;100286.38;;;24.92;31.06
69737;BME280;64476;55.004;73.342;2023-07-09T09:29:50;100279.34;;;24.86;30.91
69737;BME280;64476;55.004;73.342;2023-07-09T09:33:09;100282.81;;;24.81;31.85
69737;BME280;64476;55.004;73.342;2023-07-09T09:36:45;100296.84;;;24.88;31.76
69737;BME280;64476;55.004;73.342;2023-07-09T09:39:46;100287.59;;;25.17;31.29
69737;BME280;64476;55.004;73.342;2023-07-09T09:42:49;100282.28;;;25.42;31.49
69737;BME280;64476;55.004;73.342;2023-07-09T09:45:53;100285.56;;;25.80;30.94
69737;BME280;64476;55.004;73.342;2023-07-09T09:49:00;100264.84;;;26.01;29.61
69737;BME280;64476;55.004;73.342;2023-07-09T09:52:03;100273.19;;;26.30;29.55
69737;BME280;64476;55.004;73.342;2023-07-09T09:55:32;100300.06;;;26.55;29.21
69737;BME280;64476;55.004;73.342;2023-07-09T09:58:34;100286.38;;;26.42;28.80
69737;BME280;64476;55.004;73.342;2023-07-09T10:01:39;100281.56;;;26.23;29.40
69737;BME280;64476;55.004;73.342;2023-07-09T10:04:42;100295.25;;;26.37;29.86
69737;BME280;64476;55.004;73.342;2023-07-09T10:15:07;100275.28;;;26.64;29.07
69737;BME280;64476;55.004;73.342;2023-07-09T10:21:58;100290.06;;;26.82;29.67
69737;BME280;64476;55.004;73.342;2023-07-09T10:39:59;100251.41;;;27.51;28.08
69737;BME280;64476;55.004;73.342;2023-07-09T10:43:05;100266.81;;;27.85;27.40
69737;BME280;64476;55.004;73.342;2023-07-09T10:46:15;100253.75;;;28.02;27.08
69737;BME280;64476;55.004;73.342;2023-07-09T10:49:19;100262.00;;;28.45;27.12
69737;BME280;64476;55.004;73.342;2023-07-09T10:52:27;100276.03;;;29.14;26.15
69737;BME280;64476;55.004;73.342;2023-07-09T11:03:04;100244.50;;;30.26;25.74
69737;BME280;64476;55.004;73.342;2023-07-09T11:06:20;100257.25;;;30.26;24.14
69737;BME280;64476;55.004;73.342;2023-07-09T11:09:31;100244.56;;;29.75;24.53
69737;BME280;64476;55.004;73.342;2023-07-09T11:13:41;100260.75;;;28.80;26.34
69737;BME280;64476;55.004;73.342;2023-07-09T11:16:44;100255.72;;;28.20;26.92
69737;BME280;64476;55.004;73.342;2023-07-09T11:19:49;100251.91;;;28.99;26.29
69737;BME280;64476;55.004;73.342;2023-07-09T11:23:02;100252.13;;;30.24;25.06
69737;BME280;64476;55.004;73.342;2023-07-09T11:26:47;100258.34;;;30.11;25.64
69737;BME280;64476;55.004;73.342;2023-07-09T11:29:51;100242.88;;;29.79;25.35
69737;BME280;64476;55.004;73.342;2023-07-09T11:33:17;100253.53;;;29.37;25.29
69737;BME280;64476;55.004;73.342;2023-07-09T11:36:25;100232.84;;;29.79;25.62
69737;BME280;64476;55.004;73.342;2023-07-09T11:39:46;100230.38;;;30.29;24.67
69737;BME280;64476;55.004;73.342;2023-07-09T11:42:55;100235.16;;;31.01;23.99
69737;BME280;64476;55.004;73.342;2023-07-09T11:46:06;100230.72;;;31.64;22.84
69737;BME280;64476;55.004;73.342;2023-07-09T11:49:09;100209.53;;;30.94;23.33
69737;BME280;64476;55.004;73.342;2023-07-09T11:52:12;100222.31;;;31.29;22.81
69737;BME280;64476;55.004;73.342;2023-07-09T11:55:22;100211.97;;;31.76;22.59
69737;BME280;64476;55.004;73.342;2023-07-09T11:58:35;100204.94;;;32.07;21.78
69737;BME280;64476;55.004;73.342;2023-07-09T12:01:45;100217.75;;;31.84;22.43
69737;BME280;64476;55.004;73.342;2023-07-09T12:04:50;100211.19;;;30.81;23.78
69737;BME280;64476;55.004;73.342;2023-07-09T12:07:53;100211.72;;;29.81;24.71
69737;BME280;64476;55.004;73.342;2023-07-09T12:10:55;100226.19;;;29.20;25.89
69737;BME280;64476;55.004;73.342;2023-07-09T12:14:15;100233.53;;;28.53;26.29
69737;BME280;64476;55.004;73.342;2023-07-09T12:17:18;100217.44;;;27.89;27.15
69737;BME280;64476;55.004;73.342;2023-07-09T12:20:20;100222.03;;;27.49;27.42
69737;BME280;64476;55.004;73.342;2023-07-09T12:23:28;100214.31;;;26.83;28.42
69737;BME280;64476;55.004;73.342;2023-07-09T12:26:31;100226.81;;;26.48;28.97
69737;BME280;64476;55.004;73.342;2023-07-09T12:29:36;100230.94;;;26.20;29.36
69737;BME280;64476;55.004;73.342;2023-07-09T12:32:50;100219.91;;;25.91;30.13
69737;BME280;64476;55.004;73.342;2023-07-09T12:35:59;100228.53;;;25.83;30.77
69737;BME280;64476;55.004;73.342;2023-07-09T12:39:02;100218.03;;;25.61;30.64
69737;BME280;64476;55.004;73.342;2023-07-09T12:42:10;100232.25;;;25.51;31.42
69737;BME280;64476;55.004;73.342;2023-07-09T12:45:19;100234.66;;;25.48;31.40
69737;BME280;64476;55.004;73.342;2023-07-09T12:48:24;100229.53;;;25.36;31.49
69737;BME280;64476;55.004;73.342;2023-07-09T12:51:29;100236.50;;;25.27;31.49
69737;BME280;64476;55.004;73.342;2023-07-09T12:54:31;100213.28;;;24.95;31.87
69737;BME280;64476;55.004;73.342;2023-07-09T12:57:37;100215.38;;;24.83;32.05
69737;BME280;64476;55.004;73.342;2023-07-09T13:00:39;100212.69;;;24.73;32.59
69737;BME280;64476;55.004;73.342;2023-07-09T13:03:41;100196.22;;;24.54;32.44
69737;BME280;64476;55.004;73.342;2023-07-09T13:06:43;100205.56;;;24.46;32.89
69737;BME280;64476;55.004;73.342;2023-07-09T13:09:55;100200.47;;;24.45;32.90
69737;BME280;64476;55.004;73.342;2023-07-09T13:13:00;100226.59;;;24.64;33.58
69737;BME280;64476;55.004;73.342;2023-07-09T13:16:03;100220.69;;;24.68;33.06
69737;BME280;64476;55.004;73.342;2023-07-09T13:19:07;100194.81;;;24.46;33.11
69737;BME280;64476;55.004;73.342;2023-07-09T13:22:14;100226.78;;;24.48;33.14
69737;BME280;64476;55.004;73.342;2023-07-09T13:25:16;100225.59;;;24.28;33.67
69737;BME280;64476;55.004;73.342;2023-07-09T13:28:29;100186.47;;;24.00;33.72
69737;BME280;64476;55.004;73.342;2023-07-09T13:31:32;100227.41;;;24.23;33.98
69737;BME280;64476;55.004;73.342;2023-07-09T13:34:33;100225.28;;;24.25;33.83
69737;BME280;64476;55.004;73.342;2023-07-09T13:37:36;100201.88;;;24.15;33.70
69737;BME280;64476;55.004;73.342;2023-07-09T13:40:38;100213.16;;;24.17;33.78
69737;BME280;64476;55.004;73.342;2023-07-09T13:43:41;100224.34;;;24.04;33.98
69737;BME280;64476;55.004;73.342;2023-07-09T13:46:44;100218.66;;;23.95;34.30
69737;BME280;64476;55.004;73.342;2023-07-09T13:49:46;100203.44;;;23.74;34.58
69737;BME280;64476;55.004;73.342;2023-07-09T13:52:48;100211.25;;;23.75;34.54
69737;BME280;64476;55.004;73.342;2023-07-09T13:55:52;100216.59;;;23.75;35.17
69737;BME280;64476;55.004;73.342;2023-07-09T13:58:53;100196.31;;;23.57;34.59
69737;BME280;64476;55.004;73.342;2023-07-09T14:01:56;100216.47;;;23.65;35.16
69737;BME280;64476;55.004;73.342;2023-07-09T14:05:06;100214.03;;;23.58;35.54
69737;BME280;64476;55.004;73.342;2023-07-09T14:08:12;100164.44;;;23.29;36.03
69737;BME280;64476;55.004;73.342;2023-07-09T14:11:17;100208.81;;;23.46;36.16
69737;BME280;64476;55.004;73.342;2023-07-09T14:14:32;100185.91;;;23.34;35.86
69737;BME280;64476;55.004;73.342;2023-07-09T14:17:34;100195.34;;;23.36;35.60
69737;BME280;64476;55.004;73.342;2023-07-09T14:20:35;100145.28;;;22.93;35.82
69737;BME280;64476;55.004;73.342;2023-07-09T14:26:42;100199.41;;;23.17;36.38
69737;BME280;64476;55.004;73.342;2023-07-09T14:29:45;100203.09;;;23.11;36.41
69737;BME280;64476;55.004;73.342;2023-07-09T14:32:49;100211.97;;;23.11;36.62
69737;BME280;64476;55.004;73.342;2023-07-09T14:35:51;100206.50;;;23.06;36.55
69737;BME280;64476;55.004;73.342;2023-07-09T14:38:52;100197.94;;;23.04;36.63
69737;BME280;64476;55.004;73.342;2023-07-09T14:41:55;100208.63;;;23.04;36.56
69737;BME280;64476;55.004;73.342;2023-07-09T14:44:57;100186.47;;;22.87;36.94
69737;BME280;64476;55.004;73.342;2023-07-09T14:47:59;100193.69;;;22.86;36.50
69737;BME280;64476;55.004;73.342;2023-07-09T14:54:46;100202.41;;;22.77;37.18
69737;BME280;64476;55.004;73.342;2023-07-09T14:57:52;100174.09;;;22.59;37.19
69737;BME280;64476;55.004;73.342;2023-07-09T15:00:54;100186.75;;;22.63;37.28
69737;BME280;64476;55.004;73.342;2023-07-09T15:03:55;100199.31;;;22.63;37.53
69737;BME280;64476;55.004;73.342;2023-07-09T15:06:58;100176.66;;;22.48;37.90
69737;BME280;64476;55.004;73.342;2023-07-09T15:10:02;100187.69;;;22.52;38.04
69737;BME280;64476;55.004;73.342;2023-07-09T15:16:21;100174.56;;;22.34;37.93
69737;BME280;64476;55.004;73.342;2023-07-09T15:19:23;100201.47;;;22.44;38.06
69737;BME280;64476;55.004;73.342;2023-07-09T15:22:29;100192.53;;;22.38;38.29
69737;BME280;64476;55.004;73.342;2023-07-09T15:25:32;100194.91;;;22.35;38.44
69737;BME280;64476;55.004;73.342;2023-07-09T15:28:34;100195.66;;;22.30;38.46
69737;BME280;64476;55.004;73.342;2023-07-09T15:31:36;100185.59;;;22.20;38.96
69737;BME280;64476;55.004;73.342;2023-07-09T15:34:38;100196.63;;;22.24;38.76
69737;BME280;64476;55.004;73.342;2023-07-09T15:37:47;100214.06;;;22.26;38.63
69737;BME280;64476;55.004;73.342;2023-07-09T15:40:50;100206.19;;;22.20;38.61
69737;BME280;64476;55.004;73.342;2023-07-09T15:43:52;100207.00;;;22.20;38.89
69737;BME280;64476;55.004;73.342;2023-07-09T15:46:55;100214.50;;;22.18;39.12
69737;BME280;64476;55.004;73.342;2023-07-09T15:49:58;100212.03;;;22.17;39.19
69737;BME280;64476;55.004;73.342;2023-07-09T15:52:59;100214.31;;;22.08;39.11
69737;BME280;64476;55.004;73.342;2023-07-09T15:56:24;100210.28;;;22.06;39.61
69737;BME280;64476;55.004;73.342;2023-07-09T15:59:33;100207.84;;;22.04;39.32
69737;BME280;64476;55.004;73.342;2023-07-09T16:02:36;100208.56;;;21.99;39.36
69737;BME280;64476;55.004;73.342;2023-07-09T16:05:38;100144.78;;;21.58;39.78
69737;BME280;64476;55.004;73.342;2023-07-09T16:08:40;100208.75;;;21.93;40.11
69737;BME280;64476;55.004;73.342;2023-07-09T16:11:44;100197.63;;;21.84;39.95
69737;BME280;64476;55.004;73.342;2023-07-09T16:14:47;100204.63;;;21.85;40.19
69737;BME280;64476;55.004;73.342;2023-07-09T16:17:50;100195.59;;;21.74;40.20
69737;BME280;64476;55.004;73.342;2023-07-09T16:20:52;100216.28;;;21.79;40.01
69737;BME280;64476;55.004;73.342;2023-07-09T16:23:59;100202.72;;;21.69;40.09
69737;BME280;64476;55.004;73.342;2023-07-09T16:27:03;100206.13;;;21.64;40.27
69737;BME280;64476;55.004;73.342;2023-07-09T16:30:12;100217.88;;;21.63;40.24
69737;BME280;64476;55.004;73.342;2023-07-09T16:33:14;100211.94;;;21.61;40.29
69737;BME280;64476;55.004;73.342;2023-07-09T16:36:18;100203.13;;;21.61;40.08
69737;BME280;64476;55.004;73.342;2023-07-09T16:39:32;100193.63;;;21.53;40.43
69737;BME280;64476;55.004;73.342;2023-07-09T16:43:17;100203.50;;;21.52;40.78
69737;BME280;64476;55.004;73.342;2023-07-09T16:46:23;100186.72;;;21.40;40.75
69737;BME280;64476;55.004;73.342;2023-07-09T16:49:28;100181.75;;;21.32;40.60
69737;BME280;64476;55.004;73.342;2023-07-09T16:52:32;100200.91;;;21.41;40.97
69737;BME280;64476;55.004;73.342;2023-07-09T16:55:34;100178.22;;;21.26;41.07
69737;BME280;64476;55.004;73.342;2023-07-09T16:58:37;100174.88;;;21.19;41.16
69737;BME280;64476;55.004;73.342;2023-07-09T17:01:39;100201.53;;;21.31;41.60
69737;BME280;64476;55.004;73.342;2023-07-09T17:04:41;100207.22;;;21.35;41.62
69737;BME280;64476;55.004;73.342;2023-07-09T17:07:47;100198.84;;;21.31;42.23
69737;BME280;64476;55.004;73.342;2023-07-09T17:10:49;100177.53;;;21.19;42.13
69737;BME280;64476;55.004;73.342;2023-07-09T17:13:51;100208.97;;;21.29;42.30
69737;BME280;64476;55.004;73.342;2023-07-09T17:16:53;100182.66;;;21.09;42.28
69737;BME280;64476;55.004;73.342;2023-07-09T17:19:55;100198.44;;;21.22;42.57
69737;BME280;64476;55.004;73.342;2023-07-09T17:23:00;100188.81;;;21.10;43.63